sensor_id;sensor_type;location;lat;lon;timestamp;P1;durP1;ratioP1;P2;durP2;ratioP2
65328;SDS011;51941;52.210;5.158;2023-04-21T00:01:21;14.57;;;11.57;;
65328;SDS011;51941;52.210;5.158;2023-04-21T00:03:49;16.13;;;11.35;;
65328;SDS011;51941;52.210;5.158;2023-04-21T00:06:16;15.05;;;11.32;;
65328;SDS011;51941;52.210;5.158;2023-04-21T00:08:47;20.73;;;12.30;;
65328;SDS011;51941;52.210;5.158;2023-04-21T00:11:13;19.27;;;12.13;;
65328;SDS011;51941;52.210;5.158;2023-04-21T00:13:40;16.27;;;12.05;;
65328;SDS011;51941;52.210;5.158;2023-04-21T00:16:07;17.63;;;11.88;;
65328;SDS011;51941;52.210;5.158;2023-04-21T00:18:33;16.48;;;12.27;;
65328;SDS011;51941;52.210;5.158;2023-04-21T00:21:02;16.70;;;12.55;;
65328;SDS011;51941;52.210;5.158;2023-04-21T00:23:28;16.55;;;12.15;;
65328;SDS011;51941;52.210;5.158;2023-04-21T00:25:55;18.13;;;12.77;;
65328;SDS011;51941;52.210;5.158;2023-04-21T00:28:22;19.13;;;13.25;;
65328;SDS011;51941;52.210;5.158;2023-04-21T00:30:49;17.63;;;13.07;;
65328;SDS011;51941;52.210;5.158;2023-04-21T00:33:15;18.60;;;12.90;;
65328;SDS011;51941;52.210;5.158;2023-04-21T00:35:42;21.23;;;15.65;;
65328;SDS011;51941;52.210;5.158;2023-04-21T00:38:10;19.60;;;14.23;;
65328;SDS011;51941;52.210;5.158;2023-04-21T00:40:37;21.55;;;14.00;;
65328;SDS011;51941;52.210;5.158;2023-04-21T00:43:04;21.02;;;14.85;;
65328;SDS011;51941;52.210;5.158;2023-04-21T00:45:31;23.13;;;14.85;;
65328;SDS011;51941;52.210;5.158;2023-04-21T00:47:58;22.67;;;16.02;;
65328;SDS011;51941;52.210;5.158;2023-04-21T00:50:25;20.88;;;15.32;;
65328;SDS011;51941;52.210;5.158;2023-04-21T00:52:51;25.92;;;17.42;;
65328;SDS011;51941;52.210;5.158;2023-04-21T00:55:20;25.98;;;17.70;;
65328;SDS011;51941;52.210;5.158;2023-04-21T00:57:47;25.83;;;16.27;;
65328;SDS011;51941;52.210;5.158;2023-04-21T01:00:16;23.33;;;16.75;;
65328;SDS011;51941;52.210;5.158;2023-04-21T01:02:43;22.40;;;16.40;;
65328;SDS011;51941;52.210;5.158;2023-04-21T01:05:13;24.80;;;16.92;;
65328;SDS011;51941;52.210;5.158;2023-04-21T01:07:40;26.50;;;18.92;;
65328;SDS011;51941;52.210;5.158;2023-04-21T01:10:07;25.30;;;17.00;;
65328;SDS011;51941;52.210;5.158;2023-04-21T01:12:42;24.13;;;16.92;;
65328;SDS011;51941;52.210;5.158;2023-04-21T01:15:10;25.05;;;17.90;;
65328;SDS011;51941;52.210;5.158;2023-04-21T01:17:37;25.10;;;17.85;;
65328;SDS011;51941;52.210;5.158;2023-04-21T01:20:06;27.42;;;18.98;;
65328;SDS011;51941;52.210;5.158;2023-04-21T01:22:37;23.85;;;17.63;;
65328;SDS011;51941;52.210;5.158;2023-04-21T01:25:04;27.73;;;19.08;;
65328;SDS011;51941;52.210;5.158;2023-04-21T01:27:31;28.95;;;18.00;;
65328;SDS011;51941;52.210;5.158;2023-04-21T01:29:58;28.20;;;18.98;;
65328;SDS011;51941;52.210;5.158;2023-04-21T01:32:26;23.45;;;16.77;;
65328;SDS011;51941;52.210;5.158;2023-04-21T01:34:55;24.02;;;16.48;;
65328;SDS011;51941;52.210;5.158;2023-04-21T01:37:24;25.40;;;17.48;;
65328;SDS011;51941;52.210;5.158;2023-04-21T01:39:54;29.10;;;18.98;;
65328;SDS011;51941;52.210;5.158;2023-04-21T01:42:23;24.67;;;17.95;;
65328;SDS011;51941;52.210;5.158;2023-04-21T01:44:51;24.70;;;17.48;;
65328;SDS011;51941;52.210;5.158;2023-04-21T01:47:19;27.38;;;18.00;;
65328;SDS011;51941;52.210;5.158;2023-04-21T01:49:46;21.52;;;15.75;;
65328;SDS011;51941;52.210;5.158;2023-04-21T01:52:12;18.70;;;14.57;;
65328;SDS011;51941;52.210;5.158;2023-04-21T01:54:39;20.85;;;14.75;;
65328;SDS011;51941;52.210;5.158;2023-04-21T01:57:07;25.25;;;17.08;;
65328;SDS011;51941;52.210;5.158;2023-04-21T01:59:34;23.10;;;14.82;;
65328;SDS011;51941;52.210;5.158;2023-04-21T02:02:01;22.10;;;15.57;;
65328;SDS011;51941;52.210;5.158;2023-04-21T02:04:28;20.38;;;13.43;;
65328;SDS011;51941;52.210;5.158;2023-04-21T02:06:55;25.17;;;17.33;;
65328;SDS011;51941;52.210;5.158;2023-04-21T02:09:21;34.00;;;23.23;;
65328;SDS011;51941;52.210;5.158;2023-04-21T02:14:19;27.83;;;19.35;;
65328;SDS011;51941;52.210;5.158;2023-04-21T02:16:46;28.48;;;19.90;;
65328;SDS011;51941;52.210;5.158;2023-04-21T02:19:12;27.50;;;19.27;;
65328;SDS011;51941;52.210;5.158;2023-04-21T02:21:39;36.17;;;23.52;;
65328;SDS011;51941;52.210;5.158;2023-04-21T02:24:06;27.92;;;18.92;;
65328;SDS011;51941;52.210;5.158;2023-04-21T02:26:32;26.02;;;18.58;;
65328;SDS011;51941;52.210;5.158;2023-04-21T02:28:59;27.80;;;20.05;;
65328;SDS011;51941;52.210;5.158;2023-04-21T02:31:28;27.83;;;19.65;;
65328;SDS011;51941;52.210;5.158;2023-04-21T02:33:54;27.10;;;18.80;;
65328;SDS011;51941;52.210;5.158;2023-04-21T02:36:21;25.88;;;18.67;;
65328;SDS011;51941;52.210;5.158;2023-04-21T02:38:48;39.35;;;24.83;;
65328;SDS011;51941;52.210;5.158;2023-04-21T02:41:15;28.17;;;19.80;;
65328;SDS011;51941;52.210;5.158;2023-04-21T02:43:41;30.08;;;20.10;;
65328;SDS011;51941;52.210;5.158;2023-04-21T02:46:08;27.65;;;19.35;;
65328;SDS011;51941;52.210;5.158;2023-04-21T02:48:36;31.67;;;20.38;;
65328;SDS011;51941;52.210;5.158;2023-04-21T02:51:04;25.73;;;18.83;;
65328;SDS011;51941;52.210;5.158;2023-04-21T02:53:31;25.83;;;18.83;;
65328;SDS011;51941;52.210;5.158;2023-04-21T02:55:57;22.60;;;17.17;;
65328;SDS011;51941;52.210;5.158;2023-04-21T02:58:28;30.40;;;20.65;;
65328;SDS011;51941;52.210;5.158;2023-04-21T03:00:55;20.63;;;14.15;;
65328;SDS011;51941;52.210;5.158;2023-04-21T03:03:22;21.73;;;15.80;;
65328;SDS011;51941;52.210;5.158;2023-04-21T03:05:53;23.05;;;17.20;;
65328;SDS011;51941;52.210;5.158;2023-04-21T03:08:21;23.67;;;18.17;;
65328;SDS011;51941;52.210;5.158;2023-04-21T03:10:48;23.98;;;17.55;;
65328;SDS011;51941;52.210;5.158;2023-04-21T03:13:15;24.60;;;18.17;;
65328;SDS011;51941;52.210;5.158;2023-04-21T03:15:42;25.73;;;18.30;;
65328;SDS011;51941;52.210;5.158;2023-04-21T03:18:09;26.85;;;18.45;;
65328;SDS011;51941;52.210;5.158;2023-04-21T03:20:35;26.83;;;19.20;;
65328;SDS011;51941;52.210;5.158;2023-04-21T03:23:03;24.95;;;17.58;;
65328;SDS011;51941;52.210;5.158;2023-04-21T03:25:30;26.30;;;19.27;;
65328;SDS011;51941;52.210;5.158;2023-04-21T03:27:57;23.98;;;17.08;;
65328;SDS011;51941;52.210;5.158;2023-04-21T03:30:24;27.13;;;17.85;;
65328;SDS011;51941;52.210;5.158;2023-04-21T03:32:51;29.08;;;19.13;;
65328;SDS011;51941;52.210;5.158;2023-04-21T03:35:19;27.08;;;19.60;;
65328;SDS011;51941;52.210;5.158;2023-04-21T03:37:46;27.25;;;19.08;;
65328;SDS011;51941;52.210;5.158;2023-04-21T03:40:15;24.42;;;17.13;;
65328;SDS011;51941;52.210;5.158;2023-04-21T03:42:42;24.02;;;17.30;;
65328;SDS011;51941;52.210;5.158;2023-04-21T03:45:09;30.15;;;20.20;;
65328;SDS011;51941;52.210;5.158;2023-04-21T03:47:36;23.85;;;17.80;;
65328;SDS011;51941;52.210;5.158;2023-04-21T03:50:02;26.35;;;18.58;;
65328;SDS011;51941;52.210;5.158;2023-04-21T03:52:30;27.05;;;20.17;;
65328;SDS011;51941;52.210;5.158;2023-04-21T03:54:57;24.30;;;18.17;;
65328;SDS011;51941;52.210;5.158;2023-04-21T03:57:25;23.52;;;17.63;;
65328;SDS011;51941;52.210;5.158;2023-04-21T03:59:51;29.25;;;19.83;;
65328;SDS011;51941;52.210;5.158;2023-04-21T04:02:18;23.38;;;18.10;;
65328;SDS011;51941;52.210;5.158;2023-04-21T04:04:45;26.13;;;18.60;;
65328;SDS011;51941;52.210;5.158;2023-04-21T04:07:12;27.23;;;18.48;;
65328;SDS011;51941;52.210;5.158;2023-04-21T04:09:38;24.45;;;18.63;;
65328;SDS011;51941;52.210;5.158;2023-04-21T04:12:05;25.92;;;18.52;;
65328;SDS011;51941;52.210;5.158;2023-04-21T04:14:33;23.42;;;17.75;;
65328;SDS011;51941;52.210;5.158;2023-04-21T04:17:00;26.88;;;18.67;;
65328;SDS011;51941;52.210;5.158;2023-04-21T04:19:28;24.73;;;17.95;;
65328;SDS011;51941;52.210;5.158;2023-04-21T04:21:56;24.05;;;17.80;;
65328;SDS011;51941;52.210;5.158;2023-04-21T04:24:24;21.17;;;16.20;;
65328;SDS011;51941;52.210;5.158;2023-04-21T04:26:51;22.50;;;16.98;;
65328;SDS011;51941;52.210;5.158;2023-04-21T04:29:19;23.33;;;17.13;;
65328;SDS011;51941;52.210;5.158;2023-04-21T04:31:47;20.02;;;15.93;;
65328;SDS011;51941;52.210;5.158;2023-04-21T04:34:14;21.25;;;16.25;;
65328;SDS011;51941;52.210;5.158;2023-04-21T04:36:42;19.58;;;16.35;;
65328;SDS011;51941;52.210;5.158;2023-04-21T04:39:09;21.35;;;16.45;;
65328;SDS011;51941;52.210;5.158;2023-04-21T04:41:36;23.48;;;17.15;;
65328;SDS011;51941;52.210;5.158;2023-04-21T04:44:03;22.38;;;17.27;;
65328;SDS011;51941;52.210;5.158;2023-04-21T04:46:30;21.52;;;16.27;;
65328;SDS011;51941;52.210;5.158;2023-04-21T04:48:59;21.90;;;16.77;;
65328;SDS011;51941;52.210;5.158;2023-04-21T04:51:26;26.08;;;18.33;;
65328;SDS011;51941;52.210;5.158;2023-04-21T04:53:52;26.73;;;19.63;;
65328;SDS011;51941;52.210;5.158;2023-04-21T04:56:19;24.88;;;18.30;;
65328;SDS011;51941;52.210;5.158;2023-04-21T04:58:46;21.98;;;17.20;;
65328;SDS011;51941;52.210;5.158;2023-04-21T05:01:14;23.45;;;17.80;;
65328;SDS011;51941;52.210;5.158;2023-04-21T05:03:41;27.50;;;19.33;;
65328;SDS011;51941;52.210;5.158;2023-04-21T05:06:09;24.73;;;19.05;;
65328;SDS011;51941;52.210;5.158;2023-04-21T05:08:38;27.50;;;20.33;;
65328;SDS011;51941;52.210;5.158;2023-04-21T05:11:05;25.33;;;19.42;;
65328;SDS011;51941;52.210;5.158;2023-04-21T05:13:32;23.90;;;18.17;;
65328;SDS011;51941;52.210;5.158;2023-04-21T05:15:59;27.30;;;20.40;;
65328;SDS011;51941;52.210;5.158;2023-04-21T05:18:26;25.38;;;19.45;;
65328;SDS011;51941;52.210;5.158;2023-04-21T05:20:53;27.67;;;20.33;;
65328;SDS011;51941;52.210;5.158;2023-04-21T05:23:21;25.10;;;18.85;;
65328;SDS011;51941;52.210;5.158;2023-04-21T05:25:48;25.42;;;18.90;;
65328;SDS011;51941;52.210;5.158;2023-04-21T05:28:15;25.02;;;19.95;;
65328;SDS011;51941;52.210;5.158;2023-04-21T05:30:41;25.63;;;19.80;;
65328;SDS011;51941;52.210;5.158;2023-04-21T05:33:08;26.33;;;19.92;;
65328;SDS011;51941;52.210;5.158;2023-04-21T05:35:35;25.67;;;20.05;;
65328;SDS011;51941;52.210;5.158;2023-04-21T05:38:01;28.13;;;19.80;;
65328;SDS011;51941;52.210;5.158;2023-04-21T05:40:29;28.48;;;21.23;;
65328;SDS011;51941;52.210;5.158;2023-04-21T05:42:56;25.38;;;20.15;;
65328;SDS011;51941;52.210;5.158;2023-04-21T05:45:23;31.83;;;21.13;;
65328;SDS011;51941;52.210;5.158;2023-04-21T05:47:50;28.63;;;20.17;;
65328;SDS011;51941;52.210;5.158;2023-04-21T05:50:16;27.98;;;20.25;;
65328;SDS011;51941;52.210;5.158;2023-04-21T05:52:43;26.00;;;19.27;;
65328;SDS011;51941;52.210;5.158;2023-04-21T05:55:10;27.13;;;19.52;;
65328;SDS011;51941;52.210;5.158;2023-04-21T05:57:38;28.33;;;21.25;;
65328;SDS011;51941;52.210;5.158;2023-04-21T06:00:05;28.05;;;20.52;;
65328;SDS011;51941;52.210;5.158;2023-04-21T06:02:33;30.08;;;21.27;;
65328;SDS011;51941;52.210;5.158;2023-04-21T06:04:59;37.05;;;24.38;;
65328;SDS011;51941;52.210;5.158;2023-04-21T06:07:26;32.10;;;22.02;;
65328;SDS011;51941;52.210;5.158;2023-04-21T06:09:53;31.67;;;22.73;;
65328;SDS011;51941;52.210;5.158;2023-04-21T06:12:19;28.98;;;20.73;;
65328;SDS011;51941;52.210;5.158;2023-04-21T06:14:47;30.52;;;22.55;;
65328;SDS011;51941;52.210;5.158;2023-04-21T06:17:17;31.73;;;22.65;;
65328;SDS011;51941;52.210;5.158;2023-04-21T06:19:44;29.83;;;23.15;;
65328;SDS011;51941;52.210;5.158;2023-04-21T06:22:12;31.27;;;22.35;;
65328;SDS011;51941;52.210;5.158;2023-04-21T06:24:38;31.60;;;21.25;;
65328;SDS011;51941;52.210;5.158;2023-04-21T06:27:08;30.50;;;22.38;;
65328;SDS011;51941;52.210;5.158;2023-04-21T06:29:36;34.20;;;23.65;;
65328;SDS011;51941;52.210;5.158;2023-04-21T06:32:04;28.25;;;21.08;;
65328;SDS011;51941;52.210;5.158;2023-04-21T06:34:31;31.73;;;22.55;;
65328;SDS011;51941;52.210;5.158;2023-04-21T06:36:58;28.90;;;21.27;;
65328;SDS011;51941;52.210;5.158;2023-04-21T06:39:25;26.40;;;20.80;;
65328;SDS011;51941;52.210;5.158;2023-04-21T06:41:51;35.95;;;26.33;;
65328;SDS011;51941;52.210;5.158;2023-04-21T06:44:18;32.25;;;23.35;;
65328;SDS011;51941;52.210;5.158;2023-04-21T06:46:45;31.15;;;23.02;;
65328;SDS011;51941;52.210;5.158;2023-04-21T06:49:13;32.08;;;23.35;;
65328;SDS011;51941;52.210;5.158;2023-04-21T06:51:40;33.33;;;22.15;;
65328;SDS011;51941;52.210;5.158;2023-04-21T06:54:07;31.80;;;23.58;;
65328;SDS011;51941;52.210;5.158;2023-04-21T06:56:33;31.05;;;21.85;;
65328;SDS011;51941;52.210;5.158;2023-04-21T06:59:00;31.20;;;22.48;;
65328;SDS011;51941;52.210;5.158;2023-04-21T07:01:27;32.15;;;22.10;;
65328;SDS011;51941;52.210;5.158;2023-04-21T07:03:53;28.95;;;21.40;;
65328;SDS011;51941;52.210;5.158;2023-04-21T07:06:21;31.73;;;22.15;;
65328;SDS011;51941;52.210;5.158;2023-04-21T07:08:48;29.48;;;20.52;;
65328;SDS011;51941;52.210;5.158;2023-04-21T07:11:15;33.05;;;22.23;;
65328;SDS011;51941;52.210;5.158;2023-04-21T07:13:41;27.90;;;20.27;;
65328;SDS011;51941;52.210;5.158;2023-04-21T07:16:08;30.92;;;20.77;;
65328;SDS011;51941;52.210;5.158;2023-04-21T07:18:35;29.08;;;21.55;;
65328;SDS011;51941;52.210;5.158;2023-04-21T07:21:02;33.05;;;23.23;;
65328;SDS011;51941;52.210;5.158;2023-04-21T07:23:30;28.30;;;20.65;;
65328;SDS011;51941;52.210;5.158;2023-04-21T07:25:56;27.55;;;20.35;;
65328;SDS011;51941;52.210;5.158;2023-04-21T07:28:24;24.48;;;18.25;;
65328;SDS011;51941;52.210;5.158;2023-04-21T07:30:50;25.52;;;19.58;;
65328;SDS011;51941;52.210;5.158;2023-04-21T07:33:17;23.38;;;17.95;;
65328;SDS011;51941;52.210;5.158;2023-04-21T07:35:44;20.58;;;15.30;;
65328;SDS011;51941;52.210;5.158;2023-04-21T07:38:11;24.00;;;18.98;;
65328;SDS011;51941;52.210;5.158;2023-04-21T07:40:39;29.42;;;19.50;;
65328;SDS011;51941;52.210;5.158;2023-04-21T07:43:05;24.13;;;18.35;;
65328;SDS011;51941;52.210;5.158;2023-04-21T07:45:32;26.33;;;18.75;;
65328;SDS011;51941;52.210;5.158;2023-04-21T07:47:59;32.75;;;18.73;;
65328;SDS011;51941;52.210;5.158;2023-04-21T07:50:25;26.80;;;20.25;;
65328;SDS011;51941;52.210;5.158;2023-04-21T07:52:52;25.95;;;18.88;;
65328;SDS011;51941;52.210;5.158;2023-04-21T07:55:19;27.92;;;20.65;;
65328;SDS011;51941;52.210;5.158;2023-04-21T07:57:47;25.48;;;19.42;;
65328;SDS011;51941;52.210;5.158;2023-04-21T08:00:14;27.40;;;19.50;;
65328;SDS011;51941;52.210;5.158;2023-04-21T08:02:41;26.35;;;19.65;;
65328;SDS011;51941;52.210;5.158;2023-04-21T08:05:08;28.95;;;20.40;;
65328;SDS011;51941;52.210;5.158;2023-04-21T08:07:35;25.88;;;19.67;;
65328;SDS011;51941;52.210;5.158;2023-04-21T08:10:01;25.73;;;20.25;;
65328;SDS011;51941;52.210;5.158;2023-04-21T08:12:28;27.75;;;19.23;;
65328;SDS011;51941;52.210;5.158;2023-04-21T08:14:56;24.10;;;19.00;;
65328;SDS011;51941;52.210;5.158;2023-04-21T08:17:23;24.05;;;17.58;;
65328;SDS011;51941;52.210;5.158;2023-04-21T08:19:50;24.92;;;18.48;;
65328;SDS011;51941;52.210;5.158;2023-04-21T08:22:16;24.20;;;18.17;;
65328;SDS011;51941;52.210;5.158;2023-04-21T08:24:43;24.75;;;18.63;;
65328;SDS011;51941;52.210;5.158;2023-04-21T08:27:10;23.95;;;18.00;;
65328;SDS011;51941;52.210;5.158;2023-04-21T08:29:37;23.65;;;18.15;;
65328;SDS011;51941;52.210;5.158;2023-04-21T08:32:05;24.25;;;18.83;;
65328;SDS011;51941;52.210;5.158;2023-04-21T08:34:31;29.50;;;20.52;;
65328;SDS011;51941;52.210;5.158;2023-04-21T08:36:59;27.95;;;20.17;;
65328;SDS011;51941;52.210;5.158;2023-04-21T08:39:26;22.38;;;18.65;;
65328;SDS011;51941;52.210;5.158;2023-04-21T08:41:53;27.38;;;20.98;;
65328;SDS011;51941;52.210;5.158;2023-04-21T08:44:20;31.27;;;21.70;;
65328;SDS011;51941;52.210;5.158;2023-04-21T08:46:47;29.63;;;20.98;;
65328;SDS011;51941;52.210;5.158;2023-04-21T08:49:17;25.83;;;19.48;;
65328;SDS011;51941;52.210;5.158;2023-04-21T08:51:46;23.25;;;17.83;;
65328;SDS011;51941;52.210;5.158;2023-04-21T08:54:14;23.40;;;18.38;;
65328;SDS011;51941;52.210;5.158;2023-04-21T08:56:40;24.85;;;18.92;;
65328;SDS011;51941;52.210;5.158;2023-04-21T08:59:07;23.40;;;17.77;;
65328;SDS011;51941;52.210;5.158;2023-04-21T09:04:36;22.58;;;18.13;;
65328;SDS011;51941;52.210;5.158;2023-04-21T09:07:04;23.13;;;18.25;;
65328;SDS011;51941;52.210;5.158;2023-04-21T09:09:30;26.38;;;18.83;;
65328;SDS011;51941;52.210;5.158;2023-04-21T09:11:57;23.52;;;18.92;;
65328;SDS011;51941;52.210;5.158;2023-04-21T09:14:27;30.35;;;20.15;;
65328;SDS011;51941;52.210;5.158;2023-04-21T09:17:01;25.02;;;18.65;;
65328;SDS011;51941;52.210;5.158;2023-04-21T09:19:28;26.75;;;18.55;;
65328;SDS011;51941;52.210;5.158;2023-04-21T09:21:57;23.27;;;18.00;;
65328;SDS011;51941;52.210;5.158;2023-04-21T09:24:25;25.60;;;17.77;;
65328;SDS011;51941;52.210;5.158;2023-04-21T09:26:52;23.40;;;17.02;;
65328;SDS011;51941;52.210;5.158;2023-04-21T09:29:20;22.63;;;18.25;;
65328;SDS011;51941;52.210;5.158;2023-04-21T09:31:48;24.23;;;17.40;;
65328;SDS011;51941;52.210;5.158;2023-04-21T09:34:17;22.83;;;17.60;;
65328;SDS011;51941;52.210;5.158;2023-04-21T09:36:45;19.15;;;15.57;;
65328;SDS011;51941;52.210;5.158;2023-04-21T09:39:13;25.70;;;17.40;;
65328;SDS011;51941;52.210;5.158;2023-04-21T09:41:40;22.75;;;16.73;;
65328;SDS011;51941;52.210;5.158;2023-04-21T09:44:08;22.20;;;15.90;;
65328;SDS011;51941;52.210;5.158;2023-04-21T09:46:35;23.10;;;17.83;;
65328;SDS011;51941;52.210;5.158;2023-04-21T09:49:02;23.27;;;17.65;;
65328;SDS011;51941;52.210;5.158;2023-04-21T09:51:29;22.77;;;16.60;;
65328;SDS011;51941;52.210;5.158;2023-04-21T09:53:58;24.08;;;16.50;;
65328;SDS011;51941;52.210;5.158;2023-04-21T09:56:31;24.27;;;17.02;;
65328;SDS011;51941;52.210;5.158;2023-04-21T09:59:03;20.83;;;16.73;;
65328;SDS011;51941;52.210;5.158;2023-04-21T10:01:35;23.23;;;16.50;;
65328;SDS011;51941;52.210;5.158;2023-04-21T10:04:03;22.10;;;15.75;;
65328;SDS011;51941;52.210;5.158;2023-04-21T10:06:30;27.88;;;17.02;;
65328;SDS011;51941;52.210;5.158;2023-04-21T10:08:57;27.17;;;20.70;;
65328;SDS011;51941;52.210;5.158;2023-04-21T10:11:25;21.73;;;17.10;;
65328;SDS011;51941;52.210;5.158;2023-04-21T10:13:53;21.45;;;16.58;;
65328;SDS011;51941;52.210;5.158;2023-04-21T10:16:20;19.60;;;15.65;;
65328;SDS011;51941;52.210;5.158;2023-04-21T10:18:47;21.33;;;16.60;;
65328;SDS011;51941;52.210;5.158;2023-04-21T10:21:16;24.83;;;19.00;;
65328;SDS011;51941;52.210;5.158;2023-04-21T10:23:46;20.20;;;16.42;;
65328;SDS011;51941;52.210;5.158;2023-04-21T10:26:19;20.80;;;16.77;;
65328;SDS011;51941;52.210;5.158;2023-04-21T10:28:47;19.30;;;15.18;;
65328;SDS011;51941;52.210;5.158;2023-04-21T10:31:23;22.70;;;17.80;;
65328;SDS011;51941;52.210;5.158;2023-04-21T10:39:50;25.10;;;19.77;;
65328;SDS011;51941;52.210;5.158;2023-04-21T10:42:19;26.23;;;16.98;;
65328;SDS011;51941;52.210;5.158;2023-04-21T10:44:52;23.00;;;17.27;;
65328;SDS011;51941;52.210;5.158;2023-04-21T10:47:28;21.13;;;16.67;;
65328;SDS011;51941;52.210;5.158;2023-04-21T10:50:09;19.75;;;15.68;;
65328;SDS011;51941;52.210;5.158;2023-04-21T10:52:37;21.83;;;16.17;;
65328;SDS011;51941;52.210;5.158;2023-04-21T10:55:05;18.77;;;14.63;;
65328;SDS011;51941;52.210;5.158;2023-04-21T10:57:37;23.60;;;16.00;;
65328;SDS011;51941;52.210;5.158;2023-04-21T11:02:35;20.60;;;14.30;;
65328;SDS011;51941;52.210;5.158;2023-04-21T11:05:03;20.58;;;15.98;;
65328;SDS011;51941;52.210;5.158;2023-04-21T11:07:31;21.95;;;16.13;;
65328;SDS011;51941;52.210;5.158;2023-04-21T11:09:58;21.60;;;15.93;;
65328;SDS011;51941;52.210;5.158;2023-04-21T11:12:26;22.50;;;17.05;;
65328;SDS011;51941;52.210;5.158;2023-04-21T11:14:54;21.90;;;17.23;;
65328;SDS011;51941;52.210;5.158;2023-04-21T11:17:21;27.98;;;18.30;;
65328;SDS011;51941;52.210;5.158;2023-04-21T11:19:50;25.02;;;17.90;;
65328;SDS011;51941;52.210;5.158;2023-04-21T11:24:46;26.00;;;17.63;;
65328;SDS011;51941;52.210;5.158;2023-04-21T11:27:14;23.73;;;17.63;;
65328;SDS011;51941;52.210;5.158;2023-04-21T11:29:43;23.98;;;17.77;;
65328;SDS011;51941;52.210;5.158;2023-04-21T11:32:10;27.90;;;20.27;;
65328;SDS011;51941;52.210;5.158;2023-04-21T11:34:38;30.33;;;19.15;;
65328;SDS011;51941;52.210;5.158;2023-04-21T11:37:06;26.58;;;17.58;;
65328;SDS011;51941;52.210;5.158;2023-04-21T11:39:34;25.40;;;17.73;;
65328;SDS011;51941;52.210;5.158;2023-04-21T11:42:00;25.42;;;18.00;;
65328;SDS011;51941;52.210;5.158;2023-04-21T11:44:31;24.75;;;18.40;;
65328;SDS011;51941;52.210;5.158;2023-04-21T11:46:59;23.38;;;17.48;;
65328;SDS011;51941;52.210;5.158;2023-04-21T11:49:26;22.75;;;17.27;;
65328;SDS011;51941;52.210;5.158;2023-04-21T11:51:54;24.45;;;18.05;;
65328;SDS011;51941;52.210;5.158;2023-04-21T11:54:23;24.92;;;17.48;;
65328;SDS011;51941;52.210;5.158;2023-04-21T11:56:49;24.98;;;18.92;;
65328;SDS011;51941;52.210;5.158;2023-04-21T11:59:17;22.73;;;17.52;;
65328;SDS011;51941;52.210;5.158;2023-04-21T12:01:49;26.90;;;19.58;;
65328;SDS011;51941;52.210;5.158;2023-04-21T12:04:17;24.33;;;17.25;;
65328;SDS011;51941;52.210;5.158;2023-04-21T12:06:45;22.35;;;17.25;;
65328;SDS011;51941;52.210;5.158;2023-04-21T12:09:16;26.33;;;17.25;;
65328;SDS011;51941;52.210;5.158;2023-04-21T12:11:46;24.20;;;18.17;;
65328;SDS011;51941;52.210;5.158;2023-04-21T12:14:15;27.30;;;17.92;;
65328;SDS011;51941;52.210;5.158;2023-04-21T12:16:42;23.77;;;17.38;;
65328;SDS011;51941;52.210;5.158;2023-04-21T12:19:09;21.33;;;16.33;;
65328;SDS011;51941;52.210;5.158;2023-04-21T12:21:36;19.67;;;15.30;;
65328;SDS011;51941;52.210;5.158;2023-04-21T12:24:04;26.42;;;16.83;;
65328;SDS011;51941;52.210;5.158;2023-04-21T12:26:31;29.88;;;16.42;;
65328;SDS011;51941;52.210;5.158;2023-04-21T12:28:59;19.63;;;15.60;;
65328;SDS011;51941;52.210;5.158;2023-04-21T12:31:26;21.50;;;15.30;;
65328;SDS011;51941;52.210;5.158;2023-04-21T12:33:53;21.23;;;15.90;;
65328;SDS011;51941;52.210;5.158;2023-04-21T12:36:19;22.48;;;16.67;;
65328;SDS011;51941;52.210;5.158;2023-04-21T12:38:46;23.90;;;14.93;;
65328;SDS011;51941;52.210;5.158;2023-04-21T12:41:13;24.25;;;16.73;;
65328;SDS011;51941;52.210;5.158;2023-04-21T12:43:39;23.10;;;17.90;;
65328;SDS011;51941;52.210;5.158;2023-04-21T12:46:07;23.48;;;17.30;;
65328;SDS011;51941;52.210;5.158;2023-04-21T12:48:34;22.42;;;16.67;;
65328;SDS011;51941;52.210;5.158;2023-04-21T12:51:01;20.80;;;15.88;;
65328;SDS011;51941;52.210;5.158;2023-04-21T12:53:28;20.70;;;15.57;;
65328;SDS011;51941;52.210;5.158;2023-04-21T12:55:54;20.05;;;15.38;;
65328;SDS011;51941;52.210;5.158;2023-04-21T12:58:21;21.33;;;14.60;;
65328;SDS011;51941;52.210;5.158;2023-04-21T13:00:48;19.58;;;13.93;;
65328;SDS011;51941;52.210;5.158;2023-04-21T13:03:16;20.02;;;14.85;;
65328;SDS011;51941;52.210;5.158;2023-04-21T13:05:43;21.50;;;14.38;;
65328;SDS011;51941;52.210;5.158;2023-04-21T13:08:10;19.42;;;14.90;;
65328;SDS011;51941;52.210;5.158;2023-04-21T13:10:36;21.92;;;14.35;;
65328;SDS011;51941;52.210;5.158;2023-04-21T13:13:03;17.52;;;13.27;;
65328;SDS011;51941;52.210;5.158;2023-04-21T13:15:30;20.55;;;15.45;;
65328;SDS011;51941;52.210;5.158;2023-04-21T13:17:57;21.40;;;15.23;;
65328;SDS011;51941;52.210;5.158;2023-04-21T13:20:25;18.67;;;14.15;;
65328;SDS011;51941;52.210;5.158;2023-04-21T13:22:52;19.40;;;13.27;;
65328;SDS011;51941;52.210;5.158;2023-04-21T13:25:18;21.98;;;14.60;;
65328;SDS011;51941;52.210;5.158;2023-04-21T13:27:45;22.38;;;15.07;;
65328;SDS011;51941;52.210;5.158;2023-04-21T13:30:13;22.50;;;16.23;;
65328;SDS011;51941;52.210;5.158;2023-04-21T13:32:41;23.23;;;16.08;;
65328;SDS011;51941;52.210;5.158;2023-04-21T13:35:08;21.63;;;15.30;;
65328;SDS011;51941;52.210;5.158;2023-04-21T13:37:36;21.38;;;14.32;;
65328;SDS011;51941;52.210;5.158;2023-04-21T13:40:04;19.57;;;14.77;;
65328;SDS011;51941;52.210;5.158;2023-04-21T13:42:33;24.55;;;18.92;;
65328;SDS011;51941;52.210;5.158;2023-04-21T13:45:00;25.48;;;16.98;;
65328;SDS011;51941;52.210;5.158;2023-04-21T13:47:28;27.30;;;18.65;;
65328;SDS011;51941;52.210;5.158;2023-04-21T13:49:54;28.75;;;17.98;;
65328;SDS011;51941;52.210;5.158;2023-04-21T13:52:21;25.88;;;18.05;;
65328;SDS011;51941;52.210;5.158;2023-04-21T13:54:49;24.63;;;18.40;;
65328;SDS011;51941;52.210;5.158;2023-04-21T13:57:17;24.55;;;17.83;;
65328;SDS011;51941;52.210;5.158;2023-04-21T13:59:44;26.77;;;18.98;;
65328;SDS011;51941;52.210;5.158;2023-04-21T14:02:11;27.17;;;18.52;;
65328;SDS011;51941;52.210;5.158;2023-04-21T14:04:37;23.48;;;18.05;;
65328;SDS011;51941;52.210;5.158;2023-04-21T14:07:04;25.55;;;17.40;;
65328;SDS011;51941;52.210;5.158;2023-04-21T14:09:32;26.65;;;17.63;;
65328;SDS011;51941;52.210;5.158;2023-04-21T14:12:00;22.88;;;17.15;;
65328;SDS011;51941;52.210;5.158;2023-04-21T14:14:27;22.87;;;17.53;;
65328;SDS011;51941;52.210;5.158;2023-04-21T14:16:54;23.80;;;16.90;;
65328;SDS011;51941;52.210;5.158;2023-04-21T14:19:21;23.60;;;16.75;;
65328;SDS011;51941;52.210;5.158;2023-04-21T14:21:48;26.50;;;17.98;;
65328;SDS011;51941;52.210;5.158;2023-04-21T14:24:14;25.55;;;19.00;;
65328;SDS011;51941;52.210;5.158;2023-04-21T14:26:41;26.30;;;18.65;;
65328;SDS011;51941;52.210;5.158;2023-04-21T14:29:09;21.38;;;16.27;;
65328;SDS011;51941;52.210;5.158;2023-04-21T14:31:36;20.63;;;15.30;;
65328;SDS011;51941;52.210;5.158;2023-04-21T14:34:02;19.85;;;15.20;;
65328;SDS011;51941;52.210;5.158;2023-04-21T14:36:29;21.10;;;16.42;;
65328;SDS011;51941;52.210;5.158;2023-04-21T14:38:56;18.25;;;14.82;;